Time;durP1;ratioP1;P1;durP2;ratioP2;P2;SDS_P1;SDS_P2;PMS_P1;PMS_P2;Temp;Humidity;BMP_temperature;BMP_pressure;BME280_temperature;BME280_humidity;BME280_pressure;Samples;Min_cycle;Max_cycle;Signal;HPM_P1;HPM_P2
2022/01/25 00:10:00;;;;;;;12.53;4.47;;;;;;;-145.69;100.00;74396.28;5012205;28;20212;-76
2022/01/25 00:15:17;;;;;;;13.70;5.43;;;;;;;-145.69;100.00;74414.19;5012001;28;20586;-76
2022/01/25 00:26:05;;;;;;;15.60;6.23;;;;;;;-145.69;100.00;74380.34;5012080;28;20224;-76
2022/01/25 00:28:45;;;;;;;11.40;4.50;;;;;;;-145.69;100.00;74380.34;5011932;28;20204;-76
2022/01/25 00:31:13;;;;;;;8.77;4.00;;;;;;;-145.69;100.00;74374.38;5027812;28;20204;-76
2022/01/25 00:50:36;;;;;;;16.53;5.70;;;;;;;-145.69;100.00;74332.53;5029492;28;20253;-76
2022/01/25 00:55:47;;;;;;;15.80;5.60;;;;;;;-145.69;100.00;74354.44;5031297;28;20233;-76
2022/01/25 00:58:13;;;;;;;12.50;4.90;;;;;;;-145.69;100.00;74360.44;5031146;28;20547;-76
2022/01/25 01:00:40;;;;;;;11.53;4.13;;;;;;;-145.69;100.00;74370.38;5022726;28;20217;-76
2022/01/25 01:03:06;;;;;;;9.43;3.80;;;;;;;-145.69;100.00;74346.47;5011269;28;20208;-76
2022/01/25 01:05:34;;;;;;;7.77;3.50;;;;;;;-145.69;100.00;74340.50;5011439;28;20203;-76
2022/01/25 01:08:00;;;;;;;9.80;4.17;;;;;;;-145.69;100.00;74336.53;5011547;28;20216;-76
2022/01/25 01:10:27;;;;;;;10.77;3.43;;;;;;;-145.69;100.00;74340.50;5011452;28;20208;-76
2022/01/25 01:16:00;;;;;;;6.50;3.63;;;;;;;-145.69;100.00;74394.28;5011137;28;20211;-76
2022/01/25 01:29:49;;;;;;;5.10;2.83;;;;;;;-145.69;100.00;74388.31;4986864;28;20231;-76
2022/01/25 01:32:38;;;;;;;7.57;3.40;;;;;;;-145.69;100.00;74360.44;5010774;28;20224;-76
2022/01/25 01:35:34;;;;;;;6.63;2.73;;;;;;;-145.69;100.00;74362.41;5011032;28;20622;-76
2022/01/25 01:41:03;;;;;;;14.30;3.97;;;;;;;-145.69;100.00;74324.59;5011583;28;20710;-76
2022/01/25 01:43:31;;;;;;;11.07;3.23;;;;;;;-145.69;100.00;74332.53;5011017;28;20291;-77
2022/01/25 01:46:16;;;;;;;9.83;3.50;;;;;;;-145.69;100.00;74342.50;5010588;28;20237;-76
2022/01/25 01:48:51;;;;;;;10.23;3.43;;;;;;;-145.69;100.00;74376.34;5010624;28;20212;-76
2022/01/25 01:51:25;;;;;;;9.13;2.97;;;;;;;-145.69;100.00;74378.34;5010866;28;20205;-76
2022/01/25 01:53:54;;;;;;;7.00;3.03;;;;;;;-145.69;100.00;74350.47;5010764;28;20204;-77
2022/01/25 01:56:21;;;;;;;10.53;3.37;;;;;;;-145.69;100.00;74354.44;5010576;28;20208;-76
2022/01/25 01:58:48;;;;;;;7.60;2.80;;;;;;;-145.69;100.00;74376.34;5010597;28;20211;-76
2022/01/25 02:01:17;;;;;;;7.07;3.00;;;;;;;-145.69;100.00;74380.34;5025022;28;20224;-77
2022/01/25 02:03:44;;;;;;;5.90;2.63;;;;;;;-145.69;100.00;74390.28;5030200;28;20212;-76
2022/01/25 02:06:10;;;;;;;6.17;2.30;;;;;;;-145.69;100.00;74382.31;5030478;28;20663;-76
2022/01/25 02:08:37;;;;;;;6.63;2.53;;;;;;;-145.69;100.00;74352.47;5030248;28;20217;-76
2022/01/25 02:11:05;;;;;;;7.80;2.83;;;;;;;-145.69;100.00;74336.53;5030137;28;20208;-77
2022/01/25 02:13:32;;;;;;;10.03;2.87;;;;;;;-145.69;100.00;74336.53;5029976;28;20655;-76
2022/01/25 02:16:03;;;;;;;8.97;3.13;;;;;;;-145.69;100.00;74340.50;5029980;28;20583;-77
2022/01/25 02:24:05;;;;;;;7.80;3.13;;;;;;;-145.69;100.00;74364.41;4991667;28;20373;-76
2022/01/25 02:26:31;;;;;;;5.93;2.13;;;;;;;-145.69;100.00;74346.47;5030086;28;20215;-76
2022/01/25 02:28:58;;;;;;;5.87;2.10;;;;;;;-145.69;100.00;74352.47;5030019;28;20211;-76
2022/01/25 02:31:24;;;;;;;5.47;2.33;;;;;;;-145.69;100.00;74372.38;5013805;28;20204;-76
2022/01/25 02:33:51;;;;;;;4.70;2.07;;;;;;;-145.69;100.00;74388.31;5010996;28;20686;-76
2022/01/25 02:36:27;;;;;;;4.83;1.90;;;;;;;-145.69;100.00;74388.31;5010094;28;20201;-76
2022/01/25 02:38:54;;;;;;;5.17;2.17;;;;;;;-145.69;100.00;74388.31;5010017;28;20207;-77
2022/01/25 02:41:20;;;;;;;3.67;2.03;;;;;;;-145.69;100.00;74384.31;5009853;28;20749;-76
2022/01/25 02:43:48;;;;;;;5.17;1.70;;;;;;;-145.69;100.00;74368.38;5009964;28;20200;-76
2022/01/25 02:48:29;;;;;;;5.80;2.63;;;;;;;-145.69;100.00;74344.50;5010141;28;20205;-76
2022/01/25 02:49:08;;;;;;;5.83;2.37;;;;;;;-145.69;100.00;74336.53;5011955;28;20198;-76
2022/01/25 02:51:37;;;;;;;7.97;2.60;;;;;;;-145.69;100.00;74348.47;5010868;28;20287;-76
2022/01/25 02:54:07;;;;;;;5.97;2.23;;;;;;;-145.69;100.00;74342.50;5013435;28;20201;-76
2022/01/25 02:56:34;;;;;;;6.10;2.13;;;;;;;-145.69;100.00;74348.47;5013226;28;20693;-76
2022/01/25 02:59:01;;;;;;;8.57;2.40;;;;;;;-145.69;100.00;74350.47;5013348;28;20257;-76
2022/01/25 03:01:28;;;;;;;5.00;2.10;;;;;;;-145.69;100.00;74352.47;5030960;28;20230;-76
2022/01/25 03:03:55;;;;;;;8.53;2.80;;;;;;;-145.69;100.00;74342.50;5032868;28;20200;-77
2022/01/25 03:06:24;;;;;;;7.90;3.30;;;;;;;-145.69;100.00;74336.53;5032981;28;20249;-76
2022/01/25 03:08:52;;;;;;;7.00;2.60;;;;;;;-145.69;100.00;74338.53;5032956;28;20200;-76
2022/01/25 03:11:20;;;;;;;5.77;2.17;;;;;;;-145.69;100.00;74320.59;5033089;28;20204;-76
2022/01/25 03:13:51;;;;;;;4.10;2.20;;;;;;;-145.69;100.00;74328.56;5032679;28;20674;-76
2022/01/25 03:16:23;;;;;;;5.37;2.33;;;;;;;-145.69;100.00;74332.53;5032690;28;20215;-77
2022/01/25 03:18:53;;;;;;;5.80;1.90;;;;;;;-145.69;100.00;74332.53;5032641;28;20236;-76
2022/01/25 03:21:37;;;;;;;3.63;1.90;;;;;;;-145.69;100.00;74348.47;5032891;28;20234;-77
2022/01/25 03:24:07;;;;;;;4.40;1.57;;;;;;;-145.69;100.00;74378.34;5032701;28;20291;-76
2022/01/25 03:26:35;;;;;;;5.30;1.13;;;;;;;-145.69;100.00;74400.25;5032631;28;20196;-76
2022/01/25 03:29:02;;;;;;;1.63;1.10;;;;;;;-145.69;100.00;74396.28;5032438;28;20204;-77
2022/01/25 03:31:29;;;;;;;2.13;1.13;;;;;;;-145.69;100.00;74372.38;5013922;28;20250;-77
2022/01/25 03:33:55;;;;;;;1.97;1.17;;;;;;;-145.69;100.00;74376.34;5013060;28;20209;-77
2022/01/25 03:36:22;;;;;;;2.33;1.40;;;;;;;-145.69;100.00;74386.31;5012732;28;20209;-76
2022/01/25 03:38:48;;;;;;;1.77;1.30;;;;;;;-145.69;100.00;74372.38;5012835;28;20205;-76
2022/01/25 03:41:17;;;;;;;2.57;1.80;;;;;;;-145.69;100.00;74352.47;5012507;28;20232;-76
2022/01/25 03:43:45;;;;;;;7.73;1.80;;;;;;;-145.69;100.00;74332.53;5012791;28;20200;-76
2022/01/25 03:46:16;;;;;;;3.57;1.83;;;;;;;-145.69;100.00;74334.53;5012657;28;20254;-76
2022/01/25 03:51:26;;;;;;;2.40;1.50;;;;;;;-145.69;100.00;74336.53;5012618;28;20211;-76
2022/01/25 03:53:53;;;;;;;1.87;1.10;;;;;;;-145.69;100.00;74352.47;5012430;28;20200;-77
2022/01/25 03:56:22;;;;;;;2.73;1.00;;;;;;;-145.69;100.00;74364.41;5012643;28;20201;-76
2022/01/25 03:58:48;;;;;;;1.73;1.20;;;;;;;-145.69;100.00;74366.41;5012632;28;20208;-76
2022/01/25 04:01:15;;;;;;;2.80;1.53;;;;;;;-145.69;100.00;74364.41;5028413;28;20231;-75
2022/01/25 04:03:48;;;;;;;2.07;1.30;;;;;;;-145.69;100.00;74382.31;5031903;28;20200;-76
2022/01/25 04:06:19;;;;;;;4.83;1.03;;;;;;;-145.69;100.00;74392.28;5032012;28;20544;-77
2022/01/25 04:08:46;;;;;;;2.20;1.20;;;;;;;-145.69;100.00;74394.28;5031770;28;20609;-76
2022/01/25 04:11:12;;;;;;;1.53;1.20;;;;;;;-145.69;100.00;74404.22;5031916;28;20566;-76
2022/01/25 04:13:40;;;;;;;2.27;1.30;;;;;;;-145.69;100.00;74368.38;5031961;28;20197;-77
2022/01/25 04:16:12;;;;;;;2.20;1.43;;;;;;;-145.69;100.00;74350.47;5031941;28;20211;-76
2022/01/25 04:18:53;;;;;;;3.27;1.40;;;;;;;-145.69;100.00;74348.47;5031692;28;20243;-76
2022/01/25 04:21:39;;;;;;;2.70;1.40;;;;;;;-145.69;100.00;74340.50;5031941;28;20255;-76
2022/01/25 04:26:52;;;;;;;2.63;1.30;;;;;;;-145.69;100.00;74372.38;5031866;28;20207;-76
2022/01/25 04:29:20;;;;;;;3.03;1.40;;;;;;;-145.69;100.00;74368.38;5030963;28;20203;-76
2022/01/25 04:31:47;;;;;;;1.17;1.00;;;;;;;-145.69;100.00;74366.41;5011930;28;20681;-76
2022/01/25 04:34:26;;;;;;;1.83;1.10;;;;;;;-145.69;100.00;74360.44;5012073;28;20201;-76
2022/01/25 04:48:50;;;;;;;2.43;1.30;;;;;;;-145.69;100.00;74368.38;5011985;28;20291;-76
2022/01/25 04:50:59;;;;;;;3.00;1.40;;;;;;;-145.69;100.00;74356.44;5011705;28;20740;-78
2022/01/25 04:53:36;;;;;;;3.37;1.37;;;;;;;-145.69;100.00;74362.41;5011742;28;20673;-77
2022/01/25 04:56:09;;;;;;;3.03;1.40;;;;;;;-145.69;100.00;74332.53;5011628;28;20200;-77
2022/01/25 04:58:42;;;;;;;1.50;1.30;;;;;;;-145.69;100.00;74344.50;5011319;28;20204;-76
2022/01/25 05:01:10;;;;;;;2.53;1.20;;;;;;;-145.69;100.00;74334.53;5026382;28;20192;-76
2022/01/25 05:03:52;;;;;;;2.23;1.00;;;;;;;-145.69;100.00;74320.59;5031142;28;20571;-76
2022/01/25 05:06:19;;;;;;;2.03;0.80;;;;;;;-145.69;100.00;74310.63;5031163;28;20280;-76
2022/01/25 05:08:49;;;;;;;7.00;1.00;;;;;;;-145.69;100.00;74320.59;5030849;28;20235;-76
2022/01/25 05:11:24;;;;;;;1.17;1.07;;;;;;;-145.69;100.00;74342.50;5031242;28;20204;-77
2022/01/25 05:13:55;;;;;;;2.10;1.10;;;;;;;-145.69;100.00;74328.56;5030429;28;20203;-77
2022/01/25 05:16:29;;;;;;;1.97;0.90;;;;;;;-145.69;100.00;74310.63;5031050;28;20210;-77
2022/01/25 05:19:06;;;;;;;1.30;0.97;;;;;;;-145.69;100.00;74304.66;5030723;28;20300;-77
2022/01/25 05:24:17;;;;;;;1.03;0.93;;;;;;;-145.69;100.00;74330.56;5030456;28;20762;-76
2022/01/25 05:26:43;;;;;;;1.33;1.20;;;;;;;-145.69;100.00;74344.50;5011165;28;20204;-77
2022/01/25 05:29:10;;;;;;;1.33;1.00;;;;;;;-145.69;100.00;74370.38;5010953;28;20249;-77
2022/01/25 05:31:39;;;;;;;1.83;0.93;;;;;;;-145.69;100.00;74366.41;5010727;28;20659;-77
2022/01/25 05:34:07;;;;;;;1.50;0.90;;;;;;;-145.69;100.00;74370.38;5011065;28;20201;-77
2022/01/25 05:36:34;;;;;;;1.43;0.93;;;;;;;-145.69;100.00;74388.31;5011038;28;20297;-77
2022/01/25 05:39:06;;;;;;;1.67;1.37;;;;;;;-145.69;100.00;74398.25;5010977;28;20224;-76
2022/01/25 05:41:33;;;;;;;4.00;1.40;;;;;;;-145.69;100.00;74360.44;5010998;28;20208;-76
2022/01/25 05:46:46;;;;;;;6.63;1.40;;;;;;;-145.69;100.00;74298.69;5002161;28;20234;-77
2022/01/25 05:49:12;;;;;;;1.27;1.07;;;;;;;-145.69;100.00;74304.66;5010957;28;20205;-76
2022/01/25 05:51:39;;;;;;;0.80;0.80;;;;;;;-145.69;100.00;74320.59;5010539;28;20219;-76
2022/01/25 05:54:05;;;;;;;2.83;1.17;;;;;;;-145.69;100.00;74344.50;5010806;28;20731;-77
2022/01/25 05:56:32;;;;;;;1.23;1.03;;;;;;;-145.69;100.00;74356.44;5013579;28;20667;-77
2022/01/25 05:58:58;;;;;;;2.30;0.90;;;;;;;-145.69;100.00;74368.38;5010546;28;20212;-77
2022/01/25 06:01:25;;;;;;;1.33;0.93;;;;;;;-145.69;100.00;74356.44;5010763;28;20209;-77
2022/01/25 06:03:54;;;;;;;1.20;0.93;;;;;;;-145.69;100.00;74322.59;5010322;28;20613;-76
2022/01/25 06:06:20;;;;;;;2.30;1.10;;;;;;;-145.69;100.00;74308.66;5010639;28;20199;-77
2022/01/25 06:08:47;;;;;;;1.13;1.00;;;;;;;-145.69;100.00;74312.63;5010326;28;20655;-76
2022/01/25 06:11:13;;;;;;;1.47;1.10;;;;;;;-145.69;100.00;74322.59;5010365;28;20659;-77
2022/01/25 06:13:40;;;;;;;4.37;1.20;;;;;;;-145.69;100.00;74322.59;5010099;28;20219;-76
2022/01/25 06:16:07;;;;;;;2.10;1.47;;;;;;;-145.69;100.00;74314.63;5010229;28;20667;-76
2022/01/25 06:18:33;;;;;;;1.90;0.90;;;;;;;-145.69;100.00;74286.75;5010024;28;20232;-76
2022/01/25 06:21:01;;;;;;;1.53;1.00;;;;;;;-145.69;100.00;74284.75;5010442;28;20204;-77
2022/01/25 06:23:28;;;;;;;1.87;1.00;;;;;;;-145.69;100.00;74290.72;5010337;28;20231;-77
2022/01/25 06:25:54;;;;;;;5.80;1.30;;;;;;;-145.69;100.00;74286.75;5024712;28;20208;-76
2022/01/25 06:28:21;;;;;;;1.83;1.07;;;;;;;-145.69;100.00;74306.66;5036651;28;20203;-76
2022/01/25 06:30:48;;;;;;;4.17;1.27;;;;;;;-145.69;100.00;74324.59;5036649;28;20211;-77
2022/01/25 06:33:15;;;;;;;3.33;1.77;;;;;;;-145.69;100.00;74312.63;5036685;28;20206;-76
2022/01/25 06:35:44;;;;;;;1.90;1.30;;;;;;;-145.69;100.00;74320.59;5036456;28;20561;-76
2022/01/25 06:38:12;;;;;;;2.33;1.50;;;;;;;-145.69;100.00;74318.59;5034315;28;20198;-76
2022/01/25 06:40:38;;;;;;;3.15;1.50;;;;;;;-145.69;100.00;74328.56;5034813;28;20437;-76
2022/01/25 06:43:05;;;;;;;2.13;1.20;;;;;;;-145.69;100.00;74346.47;5036485;28;20242;-76
2022/01/25 06:45:32;;;;;;;2.13;1.23;;;;;;;-145.69;100.00;74358.44;5036407;28;20207;-76
2022/01/25 06:47:58;;;;;;;2.20;1.10;;;;;;;-145.69;100.00;74338.53;5036403;28;20204;-76
2022/01/25 06:50:25;;;;;;;2.73;1.30;;;;;;;-145.69;100.00;74328.56;5036298;28;20207;-76
2022/01/25 06:52:52;;;;;;;1.30;1.20;;;;;;;-145.69;100.00;74312.63;5036436;28;20200;-76
2022/01/25 06:55:20;;;;;;;1.97;1.13;;;;;;;-145.69;100.00;74308.66;5028996;28;20535;-76
2022/01/25 06:57:47;;;;;;;1.73;1.17;;;;;;;-145.69;100.00;74306.66;5016397;28;20687;-76
2022/01/25 07:00:17;;;;;;;3.00;1.37;;;;;;;-145.69;100.00;74308.66;5016610;28;20197;-77
2022/01/25 07:02:44;;;;;;;1.40;1.30;;;;;;;-145.69;100.00;74316.63;5016415;28;20228;-77
2022/01/25 07:05:11;;;;;;;5.20;1.40;;;;;;;-145.69;100.00;74324.59;5016248;28;20201;-76
2022/01/25 07:07:38;;;;;;;7.93;1.67;;;;;;;-145.69;100.00;74332.53;5016139;28;20197;-77
2022/01/25 07:10:06;;;;;;;2.07;1.30;;;;;;;-145.69;100.00;74350.47;5016206;28;20655;-76
2022/01/25 07:12:34;;;;;;;4.43;1.70;;;;;;;-145.69;100.00;74364.41;5016369;28;20213;-77
2022/01/25 07:15:01;;;;;;;3.33;1.67;;;;;;;-145.69;100.00;74384.31;5016276;28;20212;-77
2022/01/25 07:17:28;;;;;;;1.67;1.10;;;;;;;-145.69;100.00;74396.28;5016100;28;20208;-77
2022/01/25 07:19:54;;;;;;;3.00;1.40;;;;;;;-145.69;100.00;74396.28;5016125;28;20536;-77
2022/01/25 07:22:21;;;;;;;6.93;1.40;;;;;;;-145.69;100.00;74404.22;5016325;28;20278;-76
2022/01/25 07:24:47;;;;;;;5.47;1.90;;;;;;;-145.69;100.00;74408.22;5018734;28;20201;-76
2022/01/25 07:27:14;;;;;;;2.10;1.57;;;;;;;-145.69;100.00;74404.22;5035703;28;20659;-77
2022/01/25 07:29:41;;;;;;;4.47;1.77;;;;;;;-145.69;100.00;74406.22;5035772;28;20208;-77
2022/01/25 07:32:08;;;;;;;7.93;3.00;;;;;;;-145.69;100.00;74412.19;5035766;28;20196;-77
2022/01/25 07:34:35;;;;;;;30.03;13.07;;;;;;;-145.69;100.00;74416.19;5035723;28;20285;-77
2022/01/25 07:37:01;;;;;;;9.47;4.83;;;;;;;-145.69;100.00;74422.16;5034524;28;20196;-77
2022/01/25 07:39:28;;;;;;;14.40;5.33;;;;;;;-145.69;100.00;74430.13;5032466;28;20200;-77
2022/01/25 07:41:57;;;;;;;18.97;7.27;;;;;;;-145.69;100.00;74438.09;5032492;28;20257;-77
2022/01/25 07:44:27;;;;;;;16.10;7.30;;;;;;;-145.69;100.00;74424.16;5032058;28;20741;-77
2022/01/25 07:46:57;;;;;;;18.17;8.70;;;;;;;-145.69;100.00;74420.16;5032493;28;20666;-77
2022/01/25 07:49:24;;;;;;;14.57;7.27;;;;;;;-145.69;100.00;74396.28;5032178;28;20246;-76
2022/01/25 07:51:50;;;;;;;11.73;6.23;;;;;;;-145.69;100.00;74388.31;5032370;28;20245;-76
2022/01/25 07:54:17;;;;;;;10.00;5.30;;;;;;;-145.69;100.00;74386.31;5032485;28;20227;-77
2022/01/25 07:56:43;;;;;;;10.53;4.43;;;;;;;-145.69;100.00;74384.31;5013611;28;20204;-77
2022/01/25 07:59:10;;;;;;;11.93;3.70;;;;;;;-145.69;100.00;74380.34;5012547;28;20197;-77
2022/01/25 08:01:36;;;;;;;6.17;3.47;;;;;;;-145.69;100.00;74382.31;5012304;28;20548;-77
2022/01/25 08:04:05;;;;;;;6.40;3.10;;;;;;;-145.69;100.00;74386.31;5012169;28;20240;-77
2022/01/25 08:06:31;;;;;;;5.67;3.17;;;;;;;-145.69;100.00;74386.31;5012353;28;20201;-77
2022/01/25 08:08:58;;;;;;;7.00;3.37;;;;;;;-145.69;100.00;74372.38;5012284;28;20209;-77
2022/01/25 08:11:25;;;;;;;5.20;2.40;;;;;;;-145.69;100.00;74354.44;5012241;28;20559;-77
2022/01/25 08:13:52;;;;;;;7.37;2.43;;;;;;;-145.69;100.00;74340.50;5012288;28;20209;-76
2022/01/25 08:16:19;;;;;;;6.93;3.67;;;;;;;-145.69;100.00;74336.53;5012055;28;20205;-77
2022/01/25 08:18:45;;;;;;;7.47;2.80;;;;;;;-145.69;100.00;74338.53;5012143;28;20642;-77
2022/01/25 08:21:13;;;;;;;4.17;2.17;;;;;;;-145.69;100.00;74348.47;5012316;28;20197;-77
2022/01/25 08:23:39;;;;;;;5.53;1.93;;;;;;;-145.69;100.00;74348.47;5012010;28;20240;-77
2022/01/25 08:26:06;;;;;;;5.00;2.00;;;;;;;-145.69;100.00;74336.53;5027002;28;20449;-77
2022/01/25 08:28:32;;;;;;;8.70;2.07;;;;;;;-145.69;100.00;74334.53;5031679;28;20543;-77
2022/01/25 08:30:59;;;;;;;7.77;2.13;;;;;;;-145.69;100.00;74328.56;5031664;28;20212;-76
2022/01/25 08:33:26;;;;;;;7.53;2.70;;;;;;;-145.69;100.00;74328.56;5031903;28;20212;-76
2022/01/25 08:35:52;;;;;;;4.23;2.10;;;;;;;-145.69;100.00;74318.59;5031691;28;20249;-76
2022/01/25 08:38:20;;;;;;;3.17;2.00;;;;;;;-145.69;100.00;74324.59;5031560;28;20208;-76
2022/01/25 08:40:46;;;;;;;9.20;4.60;;;;;;;-145.69;100.00;74330.56;5031554;28;20207;-76
2022/01/25 08:43:13;;;;;;;15.10;8.17;;;;;;;-145.69;100.00;74348.47;5028010;28;20277;-76
2022/01/25 08:45:39;;;;;;;22.63;9.23;;;;;;;-145.69;100.00;74356.44;5031293;28;20227;-77
2022/01/25 08:48:06;;;;;;;22.00;9.90;;;;;;;-145.69;100.00;74368.38;5031522;28;20196;-77
2022/01/25 08:50:32;;;;;;;18.93;9.30;;;;;;;-145.69;100.00;74354.44;5030204;28;20204;-77
2022/01/25 08:52:59;;;;;;;19.03;7.63;;;;;;;-145.69;100.00;74328.56;5031207;28;20207;-78
2022/01/25 08:55:27;;;;;;;13.97;6.63;;;;;;;-145.69;100.00;74312.63;5021282;28;20197;-78
2022/01/25 08:57:53;;;;;;;14.33;6.43;;;;;;;-145.69;100.00;74296.69;5011516;28;20205;-76
2022/01/25 09:00:20;;;;;;;11.83;5.50;;;;;;;-145.69;100.00;74280.78;5011497;28;20208;-77
2022/01/25 09:02:46;;;;;;;8.70;4.47;;;;;;;-145.69;100.00;74262.84;5011627;28;20240;-77
2022/01/25 09:05:13;;;;;;;7.50;3.10;;;;;;;-145.69;100.00;74248.91;5011642;28;20201;-77
2022/01/25 09:07:39;;;;;;;3.87;2.20;;;;;;;-145.69;100.00;74238.97;5011238;28;20655;-76
2022/01/25 09:10:08;;;;;;;3.17;1.87;;;;;;;-145.69;100.00;74217.06;5011311;28;20211;-77
2022/01/25 09:12:36;;;;;;;4.00;1.97;;;;;;;-145.69;100.00;74205.09;5011167;28;20232;-77
2022/01/25 09:15:03;;;;;;;5.33;2.07;;;;;;;-145.69;100.00;74193.16;5011436;28;20197;-77
2022/01/25 09:17:30;;;;;;;3.80;1.60;;;;;;;-145.69;100.00;74175.22;5011285;28;20201;-77
2022/01/25 09:19:56;;;;;;;2.10;1.50;;;;;;;-145.69;100.00;74165.28;5011218;28;20205;-77
2022/01/25 09:22:23;;;;;;;2.53;1.37;;;;;;;-145.69;100.00;74141.38;5011116;28;20221;-76
2022/01/25 09:24:50;;;;;;;1.87;1.20;;;;;;;-145.69;100.00;74127.44;5015315;28;20220;-77
2022/01/25 09:27:16;;;;;;;2.93;1.20;;;;;;;-145.69;100.00;74111.50;5030592;28;20231;-76
2022/01/25 09:29:44;;;;;;;6.40;1.97;;;;;;;-145.69;100.00;74089.63;5030836;28;20261;-75
2022/01/25 09:32:10;;;;;;;3.80;2.20;;;;;;;-145.69;100.00;74065.72;5028491;28;20563;-76
2022/01/25 09:34:37;;;;;;;5.10;2.17;;;;;;;-145.69;100.00;74055.75;5010950;28;20217;-77
2022/01/25 09:37:04;;;;;;;5.40;3.20;;;;;;;-145.69;100.00;74039.84;5010893;28;20261;-77
2022/01/25 09:39:30;;;;;;;6.93;3.60;;;;;;;-145.69;100.00;74015.94;5010932;28;20541;-77
2022/01/25 09:41:59;;;;;;;8.63;3.87;;;;;;;-145.69;100.00;73996.03;5010245;28;20204;-77
2022/01/25 09:44:26;;;;;;;8.33;3.93;;;;;;;-145.69;100.00;73974.13;5010467;28;20242;-77
2022/01/25 09:46:56;;;;;;;8.67;4.10;;;;;;;-145.69;100.00;73948.25;5010808;28;20626;-76
2022/01/25 09:49:22;;;;;;;5.97;3.63;;;;;;;-145.69;100.00;73938.28;5119069;27;20196;-76
2022/01/25 09:51:50;;;;;;;7.43;4.00;;;;;;;-145.69;100.00;73926.34;5134308;27;20207;-75
2022/01/25 09:54:16;;;;;;;5.80;3.40;;;;;;;-145.69;100.00;73906.44;5134048;27;20196;-78
2022/01/25 09:56:43;;;;;;;6.93;2.90;;;;;;;-145.69;100.00;73896.47;5050089;27;20551;-75
2022/01/25 09:59:09;;;;;;;6.17;2.87;;;;;;;-145.69;100.00;73890.50;5030164;28;20200;-75
2022/01/25 10:01:37;;;;;;;9.40;2.70;;;;;;;-145.69;100.00;73876.56;5029773;28;20253;-75
2022/01/25 10:04:25;;;;;;;8.43;3.20;;;;;;;-145.69;100.00;73862.63;5030123;28;20318;-77
2022/01/25 10:06:52;;;;;;;6.70;2.93;;;;;;;-145.69;100.00;73850.69;5029772;28;20204;-77
2022/01/25 10:09:19;;;;;;;14.73;5.70;;;;;;;-145.69;100.00;73836.75;5030149;28;20200;-77
2022/01/25 10:11:47;;;;;;;11.13;4.90;;;;;;;-145.69;100.00;73830.75;5030058;28;20203;-76
2022/01/25 10:14:23;;;;;;;8.97;4.80;;;;;;;-145.69;100.00;73816.81;5030048;28;20662;-76
2022/01/25 10:16:53;;;;;;;5.17;3.40;;;;;;;-145.69;100.00;73802.88;5030095;28;20272;-77
2022/01/25 10:19:24;;;;;;;14.63;5.20;;;;;;;-145.69;100.00;73788.94;5013498;28;20233;-77
2022/01/25 10:21:51;;;;;;;20.20;7.03;;;;;;;-145.69;100.00;73782.97;5010247;28;20197;-77
2022/01/25 10:24:22;;;;;;;18.23;6.10;;;;;;;-145.69;100.00;73767.06;5009986;28;20326;-77
2022/01/25 10:26:52;;;;;;;16.20;6.93;;;;;;;-145.69;100.00;73761.06;5009643;28;20623;-77
2022/01/25 10:29:21;;;;;;;17.50;7.17;;;;;;;-145.69;100.00;73753.13;5009812;28;20201;-78
2022/01/25 10:31:52;;;;;;;18.10;6.83;;;;;;;-145.69;100.00;73743.16;5009919;28;20208;-77
2022/01/25 10:34:25;;;;;;;17.23;6.53;;;;;;;-145.69;100.00;73727.22;5010087;28;20720;-76
2022/01/25 10:36:53;;;;;;;15.93;6.47;;;;;;;-145.69;100.00;73713.28;5010398;28;20205;-77
2022/01/25 10:39:21;;;;;;;13.50;5.90;;;;;;;-145.69;100.00;73707.31;5010030;28;20205;-76
2022/01/25 10:41:48;;;;;;;12.17;5.50;;;;;;;-145.69;100.00;73695.38;5005500;28;20205;-77
2022/01/25 10:44:15;;;;;;;11.97;5.10;;;;;;;-145.69;100.00;73679.44;5009734;28;20228;-77
2022/01/25 10:46:41;;;;;;;8.73;4.57;;;;;;;-145.69;100.00;73665.50;5010009;28;20228;-77
2022/01/25 10:49:10;;;;;;;8.70;4.80;;;;;;;-145.69;100.00;73651.56;5010247;28;20240;-76
2022/01/25 10:51:42;;;;;;;6.97;2.70;;;;;;;-145.69;100.00;73579.91;5009925;28;20212;-77
2022/01/25 10:54:11;;;;;;;5.77;2.47;;;;;;;-145.69;100.00;73575.91;5009898;28;20228;-77
2022/01/25 10:56:42;;;;;;;6.60;2.80;;;;;;;-145.69;100.00;73571.94;4996252;28;20208;-77
2022/01/25 10:59:12;;;;;;;7.30;2.00;;;;;;;-145.69;100.00;73563.97;4990361;28;20668;-77
2022/01/25 11:01:48;;;;;;;4.23;2.47;;;;;;;-145.69;100.00;73556.00;4990680;28;20201;-76
2022/01/25 11:04:20;;;;;;;5.17;2.67;;;;;;;-145.69;100.00;73550.03;4990268;28;20719;-76
2022/01/25 11:06:55;;;;;;;5.90;2.57;;;;;;;-145.69;100.00;73528.13;4990235;28;20210;-76
2022/01/25 11:09:25;;;;;;;2.67;1.47;;;;;;;-145.69;99.59;73484.34;4990113;28;20675;-76
2022/01/25 11:11:55;;;;;;;5.23;2.17;;;;;;;-145.69;100.00;73472.38;4990448;28;20288;-76
2022/01/25 11:17:09;;;;;;;3.83;2.37;;;;;;;-145.69;100.00;73450.50;4993590;28;20398;-76
2022/01/25 11:19:36;;;;;;;4.97;2.37;;;;;;;-145.69;100.00;73468.41;5011559;28;20240;-76
2022/01/25 11:22:04;;;;;;;6.17;2.60;;;;;;;-145.69;100.00;73470.41;5013158;28;20205;-76
2022/01/25 11:24:32;;;;;;;3.87;2.37;;;;;;;-145.69;100.00;73468.41;5012878;28;20232;-76
2022/01/25 11:27:03;;;;;;;4.73;2.43;;;;;;;-145.69;100.00;73460.44;5031251;28;20288;-76
2022/01/25 11:29:33;;;;;;;4.67;2.50;;;;;;;-145.69;100.00;73442.53;5032684;28;20612;-77
2022/01/25 11:32:07;;;;;;;8.73;2.23;;;;;;;-145.69;100.00;73416.66;5032861;28;20253;-76
2022/01/25 11:34:36;;;;;;;3.20;1.80;;;;;;;-145.69;100.00;73400.72;5032271;28;20269;-76
2022/01/25 11:37:10;;;;;;;5.10;1.87;;;;;;;-145.69;94.45;73376.81;5020079;28;20197;-77
2022/01/25 11:39:43;;;;;;;2.23;1.57;;;;;;;-145.69;100.00;73370.84;5012747;28;20201;-77
2022/01/25 11:42:15;;;;;;;2.77;1.60;;;;;;;-145.69;100.00;73360.91;5012715;28;20223;-77
2022/01/25 11:44:50;;;;;;;4.17;1.40;;;;;;;-145.69;96.38;73333.03;5012378;28;20309;-77
2022/01/25 11:47:19;;;;;;;3.20;1.67;;;;;;;-145.69;93.90;73321.09;5012914;28;20207;-77
2022/01/25 11:49:55;;;;;;;3.30;1.63;;;;;;;-145.69;94.65;73311.13;5012921;28;20207;-76
2022/01/25 11:52:28;;;;;;;1.80;1.10;;;;;;;-145.69;84.65;73293.22;5013697;28;20275;-77
2022/01/25 11:55:15;;;;;;;2.90;1.50;;;;;;;-145.69;83.38;73277.28;5012519;28;20204;-77
2022/01/25 11:57:49;;;;;;;3.73;1.80;;;;;;;-145.69;87.03;73251.41;5012100;28;20212;-77
2022/01/25 12:00:35;;;;;;;3.83;1.60;;;;;;;-145.69;74.51;73231.50;5012404;28;20675;-78
2022/01/25 12:03:05;;;;;;;5.00;1.70;;;;;;;-145.69;71.90;73191.69;5012083;28;20291;-78
2022/01/25 12:05:34;;;;;;;3.53;1.70;;;;;;;-145.69;70.82;73177.75;5012340;28;20228;-78
2022/01/25 12:08:16;;;;;;;2.97;1.70;;;;;;;-145.69;74.21;73165.81;5012250;28;20232;-77
2022/01/25 12:10:45;;;;;;;4.17;1.60;;;;;;;-145.69;70.05;73137.94;5012225;28;20284;-78
2022/01/25 12:13:15;;;;;;;6.27;1.97;;;;;;;-145.69;67.80;73126.00;5012031;28;20236;-77
2022/01/25 12:15:45;;;;;;;2.83;1.60;;;;;;;-145.69;65.96;73088.16;5012188;28;20207;-77
2022/01/25 12:18:49;;;;;;;2.90;1.70;;;;;;;-145.69;66.17;73082.19;5011954;28;20237;-77
2022/01/25 12:21:16;;;;;;;4.27;1.60;;;;;;;-145.69;65.70;73070.25;5015536;28;20189;-77
2022/01/25 12:23:47;;;;;;;5.20;1.73;;;;;;;-145.69;67.61;73066.25;5030847;28;20196;-77
2022/01/25 12:26:35;;;;;;;4.43;1.80;;;;;;;-145.69;64.86;73064.28;5031672;28;20248;-76
2022/01/25 12:29:36;;;;;;;3.27;1.83;;;;;;;-145.69;65.13;73040.38;5031483;28;20291;-77
2022/01/25 12:32:29;;;;;;;3.83;2.03;;;;;;;-145.69;68.74;73042.38;5019370;28;20200;-77
2022/01/25 12:35:08;;;;;;;4.70;2.20;;;;;;;-145.69;67.83;73042.38;5029556;28;20726;-76
2022/01/25 12:37:55;;;;;;;8.03;2.80;;;;;;;-145.69;68.84;73044.38;5031645;28;20196;-76
2022/01/25 12:40:38;;;;;;;8.00;2.90;;;;;;;-145.69;72.48;73038.41;5027993;28;20200;-77
2022/01/25 12:43:06;;;;;;;6.10;2.40;;;;;;;-145.69;65.93;73038.41;5031383;28;20236;-77
2022/01/25 12:45:38;;;;;;;7.23;2.80;;;;;;;-145.69;62.66;73020.47;5031481;28;20240;-77
2022/01/25 12:48:10;;;;;;;12.50;5.40;;;;;;;-145.69;64.68;72988.63;5031638;28;20280;-77